createdAt,value
2023-04-09T00:01:10.836Z,102210.47
2023-04-09T00:03:39.013Z,102210.66
2023-04-09T00:06:06.268Z,102209.84
2023-04-09T00:08:33.103Z,102203.81
2023-04-09T00:11:00.488Z,102210.06
2023-04-09T00:13:38.382Z,102206.63
2023-04-09T00:16:06.798Z,102204.91
2023-04-09T00:18:33.590Z,102207.63
2023-04-09T00:21:00.525Z,102210.31
2023-04-09T00:23:27.357Z,102212.91
2023-04-09T00:25:54.133Z,102211.09
2023-04-09T00:28:20.975Z,102206.66
2023-04-09T00:30:47.793Z,102204.13
2023-04-09T00:33:14.563Z,102201.50
2023-04-09T00:35:41.461Z,102204.16
2023-04-09T00:38:08.239Z,102205.91
2023-04-09T00:40:34.984Z,102199.75
2023-04-09T00:43:02.461Z,102208.47
2023-04-09T00:45:29.461Z,102198.66
2023-04-09T00:47:56.723Z,102195.06
2023-04-09T00:50:23.559Z,102200.31
2023-04-09T00:52:50.583Z,102197.66
2023-04-09T00:55:18.458Z,102193.16
2023-04-09T00:57:45.240Z,102189.59
2023-04-09T01:00:13.300Z,102194.06
2023-04-09T01:02:41.764Z,102180.72
2023-04-09T01:05:10.065Z,102193.00
2023-04-09T01:08:01.913Z,102192.91
2023-04-09T01:10:42.699Z,102188.34
2023-04-09T01:13:28.906Z,102191.88
2023-04-09T01:15:59.597Z,102193.56
2023-04-09T01:18:51.516Z,102196.22
2023-04-09T01:21:23.629Z,102195.31
2023-04-09T01:24:31.523Z,102191.69
2023-04-09T01:27:09.058Z,102188.16
2023-04-09T01:29:41.992Z,102190.69
2023-04-09T01:32:10.308Z,102189.81
2023-04-09T01:34:38.821Z,102186.22
2023-04-09T01:37:06.988Z,102190.63
2023-04-09T01:39:34.011Z,102194.09
2023-04-09T01:42:04.595Z,102180.91
2023-04-09T01:44:32.834Z,102183.53
2023-04-09T01:47:01.472Z,102180.91
2023-04-09T01:49:29.272Z,102173.88
2023-04-09T01:51:56.394Z,102171.28
2023-04-09T01:54:23.165Z,102173.94
2023-04-09T01:56:50.012Z,102172.31
2023-04-09T01:59:16.798Z,102167.97
2023-04-09T02:01:56.374Z,102159.22
2023-04-09T02:04:30.958Z,102165.41
2023-04-09T02:07:28.547Z,102159.22
2023-04-09T02:09:56.460Z,102167.97
2023-04-09T02:12:25.134Z,102173.19
2023-04-09T02:14:53.344Z,102168.81
2023-04-09T02:17:20.241Z,102164.28
2023-04-09T02:19:48.413Z,102167.69
2023-04-09T02:22:16.413Z,102170.31
2023-04-09T02:24:43.195Z,102171.09
2023-04-09T02:27:10.299Z,102179.00
2023-04-09T02:29:37.122Z,102171.84
2023-04-09T02:32:03.929Z,102172.66
2023-04-09T02:34:30.717Z,102169.00
2023-04-09T02:36:57.587Z,102168.91
2023-04-09T02:39:24.347Z,102168.84
2023-04-09T02:41:52.766Z,102170.50
2023-04-09T02:44:19.531Z,102172.13
2023-04-09T02:46:49.034Z,102178.22
2023-04-09T02:49:16.422Z,102170.22
2023-04-09T02:51:43.181Z,102171.94
2023-04-09T02:54:10.269Z,102170.16
2023-04-09T02:56:37.159Z,102174.47
2023-04-09T02:59:03.940Z,102168.16
2023-04-09T03:01:30.794Z,102169.75
2023-04-09T03:03:57.734Z,102160.81
2023-04-09T03:06:24.598Z,102171.28
2023-04-09T03:08:51.579Z,102165.03
2023-04-09T03:11:18.530Z,102164.97
2023-04-09T03:13:45.304Z,102163.97
2023-04-09T03:16:12.169Z,102159.44
2023-04-09T03:18:38.944Z,102155.84
2023-04-09T03:21:07.563Z,102154.91
2023-04-09T03:23:35.037Z,102146.91
2023-04-09T03:26:05.949Z,102141.50
2023-04-09T03:28:32.925Z,102148.44
2023-04-09T03:30:59.737Z,102145.78
2023-04-09T03:33:26.533Z,102149.25
2023-04-09T03:35:53.402Z,102154.63
2023-04-09T03:38:20.254Z,102157.34
2023-04-09T03:40:47.085Z,102147.75
2023-04-09T03:43:13.886Z,102149.63
2023-04-09T03:45:40.701Z,102145.34
2023-04-09T03:48:07.502Z,102151.63
2023-04-09T03:50:43.402Z,102158.69
2023-04-09T03:53:10.252Z,102150.78
2023-04-09T03:55:37.975Z,102147.25
2023-04-09T03:58:04.943Z,102154.25
2023-04-09T04:00:31.750Z,102160.41
2023-04-09T04:02:58.641Z,102148.81
2023-04-09T04:05:26.223Z,102158.47
2023-04-09T04:07:53.101Z,102162.91
2023-04-09T04:10:20.517Z,102161.13
2023-04-09T04:12:47.395Z,102156.72
2023-04-09T04:15:14.315Z,102154.03
2023-04-09T04:17:41.129Z,102158.41
2023-04-09T04:20:08.666Z,102159.22
2023-04-09T04:22:35.812Z,102154.91
2023-04-09T04:25:04.320Z,102155.81
2023-04-09T04:27:31.248Z,102154.91
2023-04-09T04:30:00.322Z,102159.28
2023-04-09T04:32:27.336Z,102163.66
2023-04-09T04:34:54.251Z,102167.16
2023-04-09T04:37:21.663Z,102161.88
2023-04-09T04:39:48.811Z,102164.47
2023-04-09T04:42:16.519Z,102178.56
2023-04-09T04:44:44.175Z,102170.53
2023-04-09T04:47:10.961Z,102169.59
2023-04-09T04:49:37.742Z,102174.91
2023-04-09T04:52:04.730Z,102172.25
2023-04-09T04:54:31.651Z,102180.16
2023-04-09T04:56:58.446Z,102175.81
2023-04-09T04:59:25.339Z,102172.34
2023-04-09T05:01:52.188Z,102179.50
2023-04-09T05:04:19.005Z,102170.84
2023-04-09T05:06:45.770Z,102169.16
2023-04-09T05:09:12.643Z,102176.25
2023-04-09T05:11:39.418Z,102174.53
2023-04-09T05:14:06.617Z,102171.06
2023-04-09T05:16:33.460Z,102181.69
2023-04-09T05:19:00.267Z,102184.47
2023-04-09T05:21:27.562Z,102174.91
2023-04-09T05:23:54.735Z,102178.44
2023-04-09T05:26:22.569Z,102183.00
2023-04-09T05:28:49.759Z,102176.09
2023-04-09T05:31:16.717Z,102188.47
2023-04-09T05:33:43.598Z,102189.38
2023-04-09T05:36:16.981Z,102188.47
2023-04-09T05:38:46.284Z,102189.38
2023-04-09T05:41:13.260Z,102191.19
2023-04-09T05:43:40.520Z,102194.75
2023-04-09T05:46:07.410Z,102197.38
2023-04-09T05:48:37.428Z,102187.63
2023-04-09T05:51:04.487Z,102199.94
2023-04-09T05:53:32.082Z,102189.44
2023-04-09T05:55:58.939Z,102187.78
2023-04-09T05:58:25.873Z,102188.78
2023-04-09T06:00:52.627Z,102192.47
2023-04-09T06:03:19.826Z,102191.66
2023-04-09T06:05:46.872Z,102190.88
2023-04-09T06:08:14.080Z,102194.56
2023-04-09T06:10:41.500Z,102196.53
2023-04-09T06:13:08.415Z,102202.91
2023-04-09T06:15:36.262Z,102201.25
2023-04-09T06:18:03.206Z,102197.03
2023-04-09T06:20:30.481Z,102201.59
2023-04-09T06:22:57.259Z,102208.88
2023-04-09T06:25:24.129Z,102213.47
2023-04-09T06:27:50.892Z,102210.06
2023-04-09T06:30:17.708Z,102210.19
2023-04-09T06:32:54.451Z,102217.34
2023-04-09T06:35:22.591Z,102216.47
2023-04-09T06:37:49.422Z,102213.94
2023-04-09T06:40:16.344Z,102220.25
2023-04-09T06:42:43.128Z,102219.50
2023-04-09T06:45:10.213Z,102214.34
2023-04-09T06:47:37.024Z,102215.50
2023-04-09T06:50:04.440Z,102217.44
2023-04-09T06:52:31.249Z,102207.91
2023-04-09T06:54:58.031Z,102212.41
2023-04-09T06:57:25.460Z,102218.63
2023-04-09T06:59:52.207Z,102215.97
2023-04-09T07:02:19.077Z,102210.78
2023-04-09T07:04:45.987Z,102219.66
2023-04-09T07:07:12.812Z,102214.47
2023-04-09T07:09:39.690Z,102210.09
2023-04-09T07:12:06.463Z,102212.88
2023-04-09T07:14:33.255Z,102207.63
2023-04-09T07:17:00.031Z,102217.50
2023-04-09T07:19:26.788Z,102215.94
2023-04-09T07:21:53.692Z,102214.31
2023-04-09T07:24:20.565Z,102216.19
2023-04-09T07:26:47.945Z,102214.56
2023-04-09T07:29:15.225Z,102219.97
2023-04-09T07:31:42.029Z,102217.44
2023-04-09T07:34:08.832Z,102226.47
2023-04-09T07:36:35.639Z,102217.84
2023-04-09T07:39:02.462Z,102216.22
2023-04-09T07:41:29.251Z,102213.81
2023-04-09T07:43:56.209Z,102221.81
2023-04-09T07:46:23.107Z,102213.88
2023-04-09T07:48:50.122Z,102218.28
2023-04-09T07:51:17.178Z,102220.97
2023-04-09T07:53:43.970Z,102226.28
2023-04-09T07:56:10.791Z,102222.00
2023-04-09T07:58:40.161Z,102221.22
2023-04-09T08:01:06.935Z,102218.59
2023-04-09T08:03:33.922Z,102222.19
2023-04-09T08:06:01.247Z,102220.41
2023-04-09T08:08:28.397Z,102226.59
2023-04-09T08:10:55.504Z,102222.19
2023-04-09T08:13:25.286Z,102222.25
2023-04-09T08:15:52.304Z,102216.97
2023-04-09T08:18:19.178Z,102215.22
2023-04-09T08:20:46.060Z,102222.31
2023-04-09T08:23:13.087Z,102222.31
2023-04-09T08:25:39.948Z,102219.69
2023-04-09T08:28:06.786Z,102222.31
2023-04-09T08:30:34.255Z,102220.53
2023-04-09T08:33:02.502Z,102220.63
2023-04-09T08:35:32.578Z,102226.88
2023-04-09T08:37:59.830Z,102215.44
2023-04-09T08:40:26.640Z,102218.19
2023-04-09T08:42:58.660Z,102220.94
2023-04-09T08:45:25.774Z,102220.06
2023-04-09T08:47:52.928Z,102222.69
2023-04-09T08:50:20.641Z,102215.75
2023-04-09T08:52:48.583Z,102230.00
2023-04-09T08:55:15.606Z,102224.84
2023-04-09T08:57:43.767Z,102214.41
2023-04-09T09:00:11.532Z,102222.50
2023-04-09T09:02:39.460Z,102217.28
2023-04-09T09:05:06.908Z,102214.66
2023-04-09T09:07:34.223Z,102217.41
2023-04-09T09:10:05.285Z,102213.09
2023-04-09T09:12:41.075Z,102209.69
2023-04-09T09:15:29.124Z,102209.88
2023-04-09T09:18:00.591Z,102204.78
2023-04-09T09:20:27.541Z,102210.25
2023-04-09T09:22:56.776Z,102205.03
2023-04-09T09:25:25.493Z,102200.69
2023-04-09T09:27:53.820Z,102207.78
2023-04-09T09:30:26.551Z,102205.13
2023-04-09T09:33:06.375Z,102210.56
2023-04-09T09:35:51.142Z,102205.34
2023-04-09T09:38:18.381Z,102209.84
2023-04-09T09:40:45.266Z,102200.19
2023-04-09T09:43:15.590Z,102214.47
2023-04-09T09:45:43.768Z,102208.31
2023-04-09T09:48:12.721Z,102206.56
2023-04-09T09:50:43.101Z,102202.19
2023-04-09T09:53:11.920Z,102201.38
2023-04-09T09:55:41.728Z,102204.13
2023-04-09T09:58:23.653Z,102207.66
2023-04-09T10:00:52.737Z,102203.28
2023-04-09T10:03:25.275Z,102207.66
2023-04-09T10:05:53.861Z,102198.78
2023-04-09T10:08:22.823Z,102203.22
2023-04-09T10:10:52.288Z,102209.44
2023-04-09T10:13:32.172Z,102202.34
2023-04-09T10:15:59.792Z,102200.63
2023-04-09T10:18:26.676Z,102198.09
2023-04-09T10:21:14.933Z,102201.75
2023-04-09T10:23:44.373Z,102198.28
2023-04-09T10:26:11.255Z,102200.13
2023-04-09T10:28:38.487Z,102187.75
2023-04-09T10:31:07.433Z,102195.78
2023-04-09T10:33:37.331Z,102190.47
2023-04-09T10:36:14.776Z,102192.22
2023-04-09T10:38:45.817Z,102188.66
2023-04-09T10:41:16.223Z,102183.34
2023-04-09T10:43:43.811Z,102180.66
2023-04-09T10:46:34.417Z,102184.25
2023-04-09T10:49:18.741Z,102178.97
2023-04-09T10:52:12.589Z,102172.75
2023-04-09T10:54:46.068Z,102171.84
2023-04-09T10:57:21.481Z,102168.38
2023-04-09T10:59:55.809Z,102165.66
2023-04-09T11:02:40.355Z,102161.16
2023-04-09T11:05:22.433Z,102164.75
2023-04-09T11:08:05.311Z,102162.19
2023-04-09T11:10:36.356Z,102164.88
2023-04-09T11:13:03.512Z,102164.88
2023-04-09T11:15:34.849Z,102165.78
2023-04-09T11:18:02.339Z,102161.38
2023-04-09T11:20:31.012Z,102159.63
2023-04-09T11:22:59.819Z,102153.56
2023-04-09T11:25:30.553Z,102143.09
2023-04-09T11:27:57.778Z,102149.44
2023-04-09T11:30:24.822Z,102139.81
2023-04-09T11:32:51.681Z,102145.31
2023-04-09T11:35:21.525Z,102155.25
2023-04-09T11:37:50.103Z,102152.75
2023-04-09T11:40:19.808Z,102153.78
2023-04-09T11:42:50.852Z,102153.00
2023-04-09T11:45:18.805Z,102142.41
2023-04-09T11:47:47.106Z,102151.34
2023-04-09T11:50:16.121Z,102143.41
2023-04-09T11:52:45.222Z,102138.09
2023-04-09T11:55:12.588Z,102137.22
2023-04-09T11:57:46.929Z,102135.50
2023-04-09T12:00:15.272Z,102142.69
2023-04-09T12:02:50.691Z,102135.69
2023-04-09T12:05:30.478Z,102134.06
2023-04-09T12:08:07.025Z,102134.16
2023-04-09T12:10:38.672Z,102133.34
2023-04-09T12:13:10.371Z,102130.75
2023-04-09T12:15:41.102Z,102129.03
2023-04-09T12:18:13.523Z,102131.75
2023-04-09T12:20:47.364Z,102125.56
2023-04-09T12:23:15.879Z,102126.44
2023-04-09T12:25:45.444Z,102123.78
2023-04-09T12:28:16.002Z,102114.91
2023-04-09T12:30:43.907Z,102120.22
2023-04-09T12:33:11.466Z,102114.84
2023-04-09T12:35:38.795Z,102121.09
2023-04-09T12:38:06.936Z,102118.41
2023-04-09T12:40:35.650Z,102111.28
2023-04-09T12:43:02.484Z,102111.28
2023-04-09T12:45:30.311Z,102105.09
2023-04-09T12:47:57.208Z,102106.00
2023-04-09T12:50:24.280Z,102104.22
2023-04-09T12:52:51.089Z,102098.00
2023-04-09T12:55:17.891Z,102097.09
2023-04-09T12:57:46.979Z,102098.91
2023-04-09T13:00:14.622Z,102096.22
2023-04-09T13:02:41.614Z,102087.34
2023-04-09T13:05:08.763Z,102095.38
2023-04-09T13:07:35.684Z,102082.91
2023-04-09T13:10:02.573Z,102091.81
2023-04-09T13:12:30.101Z,102083.88
2023-04-09T13:14:56.879Z,102074.09
2023-04-09T13:17:23.826Z,102065.19
2023-04-09T13:19:51.686Z,102072.31
2023-04-09T13:22:19.097Z,102072.31
2023-04-09T13:24:45.957Z,102074.13
2023-04-09T13:27:12.886Z,102068.75
2023-04-09T13:29:39.709Z,102067.91
2023-04-09T13:32:11.353Z,102073.25
2023-04-09T13:34:39.627Z,102065.22
2023-04-09T13:37:07.118Z,102055.41
2023-04-09T13:39:33.997Z,102065.19
2023-04-09T13:42:07.205Z,102055.41
2023-04-09T13:44:42.022Z,102055.38
2023-04-09T13:47:11.072Z,102054.47
2023-04-09T13:49:37.924Z,102043.78
2023-04-09T13:52:05.008Z,102049.09
2023-04-09T13:54:32.784Z,102045.56
2023-04-09T13:56:59.632Z,102038.41
2023-04-09T13:59:26.535Z,102035.75
2023-04-09T14:01:53.402Z,102034.00
2023-04-09T14:04:20.493Z,102033.97
2023-04-09T14:06:47.353Z,102026.84
2023-04-09T14:09:15.468Z,102025.94
2023-04-09T14:11:42.263Z,102026.81
2023-04-09T14:14:09.356Z,102021.44
2023-04-09T14:16:36.386Z,102027.69
2023-04-09T14:19:03.225Z,102025.91
2023-04-09T14:21:30.032Z,102018.78
2023-04-09T14:23:56.839Z,102017.91
2023-04-09T14:26:24.489Z,102019.69
2023-04-09T14:28:51.775Z,102009.00
2023-04-09T14:31:21.699Z,102010.75
2023-04-09T14:33:48.760Z,102012.50
2023-04-09T14:36:15.794Z,102013.41
2023-04-09T14:38:42.599Z,102018.75
2023-04-09T14:41:09.416Z,102019.63
2023-04-09T14:43:36.211Z,102013.41
2023-04-09T14:46:03.968Z,102016.94
2023-04-09T14:48:30.830Z,102015.13
2023-04-09T14:50:58.116Z,102004.44
2023-04-09T14:53:25.243Z,102003.53
2023-04-09T14:55:52.201Z,101994.63
2023-04-09T14:58:18.991Z,101999.97
2023-04-09T15:00:45.774Z,101999.13
2023-04-09T15:03:12.765Z,101996.44
2023-04-09T15:05:39.718Z,101990.19
2023-04-09T15:08:06.499Z,101994.69
2023-04-09T15:10:33.307Z,101994.69
2023-04-09T15:13:00.106Z,101992.00
2023-04-09T15:15:27.254Z,101983.06
2023-04-09T15:17:54.087Z,101986.69
2023-04-09T15:20:21.086Z,101990.25
2023-04-09T15:22:47.899Z,101991.13
2023-04-09T15:25:14.753Z,101991.13
2023-04-09T15:27:41.564Z,101986.69
2023-04-09T15:30:08.845Z,101978.66
2023-04-09T15:32:35.611Z,101975.13
2023-04-09T15:35:02.458Z,101970.69
2023-04-09T15:37:29.251Z,101965.34
2023-04-09T15:39:56.444Z,101973.34
2023-04-09T15:42:23.210Z,101972.47
2023-04-09T15:44:50.623Z,101973.38
2023-04-09T15:47:17.686Z,101969.81
2023-04-09T15:49:44.603Z,101967.16
2023-04-09T15:52:11.389Z,101961.81
2023-04-09T15:54:38.198Z,101965.38
2023-04-09T15:57:05.083Z,101969.81
2023-04-09T15:59:31.909Z,101959.16
2023-04-09T16:01:58.821Z,101963.63
2023-04-09T16:04:26.810Z,101952.91
2023-04-09T16:06:55.363Z,101966.28
2023-04-09T16:09:22.840Z,101963.59
2023-04-09T16:11:51.520Z,101964.53
2023-04-09T16:14:18.376Z,101956.50
2023-04-09T16:16:49.604Z,101959.19
2023-04-09T16:19:17.709Z,101956.50
2023-04-09T16:21:45.363Z,101946.72
2023-04-09T16:24:13.097Z,101946.72
2023-04-09T16:26:44.440Z,101945.84
2023-04-09T16:29:12.605Z,101944.97
2023-04-09T16:31:42.152Z,101952.13
2023-04-09T16:34:09.023Z,101945.00
2023-04-09T16:36:37.065Z,101950.34
2023-04-09T16:39:04.720Z,101944.09
2023-04-09T16:41:31.547Z,101939.63
2023-04-09T16:43:58.338Z,101938.75
2023-04-09T16:46:25.292Z,101936.09
2023-04-09T16:48:52.483Z,101943.22
2023-04-09T16:51:19.610Z,101934.31
2023-04-09T16:53:46.718Z,101936.13
2023-04-09T16:56:15.531Z,101929.00
2023-04-09T16:58:43.109Z,101936.13
2023-04-09T17:01:09.974Z,101929.03
2023-04-09T17:03:36.943Z,101936.16
2023-04-09T17:06:04.665Z,101931.72
2023-04-09T17:08:31.770Z,101935.28
2023-04-09T17:11:04.150Z,101937.97
2023-04-09T17:13:35.009Z,101937.94
2023-04-09T17:16:02.748Z,101935.28
2023-04-09T17:18:30.044Z,101937.97
2023-04-09T17:20:56.975Z,101935.28
2023-04-09T17:23:23.808Z,101937.06
2023-04-09T17:25:50.602Z,101945.03
2023-04-09T17:28:18.939Z,101949.47
2023-04-09T17:30:46.161Z,101953.94
2023-04-09T17:33:13.268Z,101950.38
2023-04-09T17:35:41.837Z,101953.94
2023-04-09T17:38:08.817Z,101949.47
2023-04-09T17:40:35.841Z,101957.47
2023-04-09T17:43:02.607Z,101950.34
2023-04-09T17:45:29.529Z,101940.53
2023-04-09T17:47:57.019Z,101947.66
2023-04-09T17:50:24.138Z,101943.19
2023-04-09T17:52:51.011Z,101936.97
2023-04-09T17:55:18.250Z,101940.50
2023-04-09T17:57:45.063Z,101944.94
2023-04-09T18:00:12.533Z,101941.34
2023-04-09T18:02:39.530Z,101949.31
2023-04-09T18:05:07.286Z,101945.78
2023-04-09T18:07:34.507Z,101948.41
2023-04-09T18:10:03.442Z,101940.38
2023-04-09T18:12:30.471Z,101929.69
2023-04-09T18:14:57.243Z,101936.75
2023-04-09T18:17:26.137Z,101950.91
2023-04-09T18:19:54.812Z,101939.34
2023-04-09T18:22:21.753Z,101941.09
2023-04-09T18:24:48.688Z,101949.94
2023-04-09T18:27:17.665Z,101945.44
2023-04-09T18:29:44.472Z,101948.06
2023-04-09T18:32:11.257Z,101945.34
2023-04-09T18:34:38.092Z,101947.06
2023-04-09T18:37:04.852Z,101962.97
2023-04-09T18:39:31.669Z,101954.94
2023-04-09T18:41:58.436Z,101957.59
2023-04-09T18:44:25.204Z,101952.19
2023-04-09T18:46:52.209Z,101957.47
2023-04-09T18:49:19.059Z,101952.09
2023-04-09T18:51:47.876Z,101959.13
2023-04-09T18:54:34.914Z,101950.22
2023-04-09T18:59:33.396Z,101952.72
2023-04-09T19:02:01.157Z,101951.75
2023-04-09T19:04:28.187Z,101967.69
2023-04-09T19:06:55.239Z,101963.19
2023-04-09T19:09:22.241Z,101954.25
2023-04-09T19:11:49.015Z,101959.53
2023-04-09T19:14:16.093Z,101955.06
2023-04-09T19:16:44.217Z,101956.75
2023-04-09T19:19:11.884Z,101952.28
2023-04-09T19:21:38.695Z,101961.97
2023-04-09T19:24:06.240Z,101958.38
2023-04-09T19:26:33.214Z,101956.56
2023-04-09T19:29:03.634Z,101957.38
2023-04-09T19:31:30.624Z,101959.09
2023-04-09T19:33:57.621Z,101951.09
2023-04-09T19:36:24.392Z,101956.38
2023-04-09T19:38:51.651Z,101951.88
2023-04-09T19:41:18.630Z,101948.28
2023-04-09T19:43:48.434Z,101944.69
2023-04-09T19:46:15.287Z,101939.34
2023-04-09T19:48:42.060Z,101944.59
2023-04-09T19:51:15.709Z,101940.97
2023-04-09T19:53:43.122Z,101948.00
2023-04-09T19:56:10.774Z,101952.38
2023-04-09T19:58:37.642Z,101954.97
2023-04-09T20:01:04.811Z,101948.75
2023-04-09T20:03:34.801Z,101944.28
2023-04-09T20:06:08.501Z,101948.63
2023-04-09T20:08:36.544Z,101945.91
2023-04-09T20:11:04.009Z,101945.88
2023-04-09T20:13:30.788Z,101940.50
2023-04-09T20:15:57.631Z,101937.84
2023-04-09T20:18:24.391Z,101942.22
2023-04-09T20:20:51.857Z,101946.59
2023-04-09T20:23:18.604Z,101955.41
2023-04-09T20:25:45.348Z,101958.00
2023-04-09T20:28:12.162Z,101954.44
2023-04-09T20:30:38.921Z,101958.81
2023-04-09T20:33:05.786Z,101957.88
2023-04-09T20:35:36.123Z,101948.13
2023-04-09T20:38:03.245Z,101950.75
2023-04-09T20:40:31.246Z,101955.13
2023-04-09T20:42:59.164Z,101962.16
2023-04-09T20:45:26.129Z,101949.72
2023-04-09T20:47:53.174Z,101948.81
2023-04-09T20:50:20.066Z,101945.19
2023-04-09T20:52:47.447Z,101943.34
2023-04-09T20:55:14.482Z,101940.63
2023-04-09T20:57:41.460Z,101945.03
2023-04-09T21:00:09.007Z,101941.41
2023-04-09T21:02:36.380Z,101937.81
2023-04-09T21:05:11.827Z,101935.13
2023-04-09T21:07:48.501Z,101933.25
2023-04-09T21:10:15.487Z,101929.66
2023-04-09T21:12:43.040Z,101935.81
2023-04-09T21:15:10.557Z,101922.50
2023-04-09T21:17:37.412Z,101925.06
2023-04-09T21:20:04.622Z,101919.69
2023-04-09T21:22:31.904Z,101918.75
2023-04-09T21:24:58.718Z,101922.19
2023-04-09T21:27:25.835Z,101915.97
2023-04-09T21:29:53.574Z,101915.00
2023-04-09T21:32:20.526Z,101917.59
2023-04-09T21:34:47.421Z,101915.78
2023-04-09T21:37:14.192Z,101916.59
2023-04-09T21:39:41.059Z,101914.75
2023-04-09T21:42:08.701Z,101916.50
2023-04-09T21:44:35.536Z,101915.56
2023-04-09T21:47:07.320Z,101919.06
2023-04-09T21:49:39.042Z,101923.44
2023-04-09T21:52:13.690Z,101921.63
2023-04-09T21:54:42.030Z,101919.78
2023-04-09T21:57:08.973Z,101921.50
2023-04-09T21:59:38.507Z,101918.81
2023-04-09T22:02:05.675Z,101916.16
2023-04-09T22:04:34.829Z,101927.56
2023-04-09T22:07:02.523Z,101922.22
2023-04-09T22:09:30.238Z,101916.94
2023-04-09T22:11:58.653Z,101922.19
2023-04-09T22:14:29.505Z,101923.94
2023-04-09T22:16:58.148Z,101922.94
2023-04-09T22:19:26.084Z,101926.47
2023-04-09T22:21:53.421Z,101922.91
2023-04-09T22:24:21.384Z,101921.03
2023-04-09T22:26:48.122Z,101917.47
2023-04-09T22:29:14.914Z,101928.06
2023-04-09T22:31:41.975Z,101925.34
2023-04-09T22:34:20.193Z,101915.59
2023-04-09T22:36:48.080Z,101922.66
2023-04-09T22:39:14.888Z,101923.47
2023-04-09T22:41:41.688Z,101918.16
2023-04-09T22:44:09.425Z,101919.00
2023-04-09T22:46:36.741Z,101917.22
2023-04-09T22:49:05.611Z,101917.16
2023-04-09T22:51:34.396Z,101923.31
2023-04-09T23:01:09.336Z,101917.69
2023-04-09T23:03:36.232Z,101907.97
2023-04-09T23:06:03.064Z,101910.56
2023-04-09T23:08:29.854Z,101902.59
2023-04-09T23:10:57.243Z,101915.81
2023-04-09T23:13:24.008Z,101911.31
2023-04-09T23:15:50.920Z,101920.13
2023-04-09T23:18:17.836Z,101919.22
2023-04-09T23:20:44.664Z,101916.50
2023-04-09T23:23:12.327Z,101911.13
2023-04-09T23:25:39.089Z,101912.84
2023-04-09T23:28:05.905Z,101916.31
2023-04-09T23:30:32.925Z,101911.81
2023-04-09T23:32:59.870Z,101912.66
2023-04-09T23:35:26.664Z,101909.06
2023-04-09T23:37:53.511Z,101913.41
2023-04-09T23:40:20.321Z,101909.78
2023-04-09T23:42:48.027Z,101910.66
2023-04-09T23:45:14.932Z,101909.69
2023-04-09T23:47:42.197Z,101909.63
2023-04-09T23:50:09.574Z,101913.13
2023-04-09T23:52:38.300Z,101912.13
2023-04-09T23:55:10.642Z,101918.25
2023-04-09T23:57:37.787Z,101919.09
